createdAt,value
2018-07-26T00:00:26.084Z,83.87
2018-07-26T00:02:53.263Z,84.02
2018-07-26T00:05:20.448Z,84.32
2018-07-26T00:07:47.583Z,83.37
2018-07-26T00:10:14.721Z,82.31
2018-07-26T00:12:41.883Z,82.95
2018-07-26T00:15:09.449Z,83.87
2018-07-26T00:17:36.727Z,83.56
2018-07-26T00:20:04.123Z,84.62
2018-07-26T00:22:31.269Z,83.86
2018-07-26T00:24:58.367Z,83.16
2018-07-26T00:27:25.536Z,83.38
2018-07-26T00:29:52.654Z,84.92
2018-07-26T00:32:19.781Z,84.81
2018-07-26T00:34:47.017Z,84.05
2018-07-26T00:37:14.165Z,84.31
2018-07-26T00:39:41.297Z,84.61
2018-07-26T00:42:08.558Z,84.61
2018-07-26T00:44:35.693Z,84.37
2018-07-26T00:47:02.880Z,83.92
2018-07-26T00:49:30.074Z,85.34
2018-07-26T00:51:57.195Z,85.46
2018-07-26T00:54:24.299Z,85.19
2018-07-26T00:56:51.523Z,85.38
2018-07-26T00:59:18.696Z,85.07
2018-07-26T01:01:45.836Z,85.37
2018-07-26T01:04:13.081Z,86.29
2018-07-26T01:06:40.192Z,85.28
2018-07-26T01:09:08.543Z,86.55
2018-07-26T01:11:35.760Z,86.73
2018-07-26T01:14:03.168Z,86.20
2018-07-26T01:16:30.350Z,86.30
2018-07-26T01:18:57.501Z,85.22
2018-07-26T01:21:24.621Z,85.96
2018-07-26T01:23:51.772Z,86.39
2018-07-26T01:26:18.950Z,86.65
2018-07-26T01:28:46.187Z,86.35
2018-07-26T01:31:13.318Z,86.79
2018-07-26T01:33:40.547Z,87.23
2018-07-26T01:36:07.680Z,87.01
2018-07-26T01:38:34.820Z,87.49
2018-07-26T01:41:02.032Z,87.15
2018-07-26T01:43:52.629Z,88.17
2018-07-26T01:46:22.044Z,88.20
2018-07-26T01:48:49.220Z,88.49
2018-07-26T01:51:16.337Z,88.88
2018-07-26T01:53:44.123Z,88.43
2018-07-26T01:56:11.225Z,88.22
2018-07-26T01:58:38.380Z,88.92
2018-07-26T02:01:06.832Z,88.25
2018-07-26T02:03:35.606Z,88.46
2018-07-26T02:06:02.869Z,88.62
2018-07-26T02:08:30.211Z,88.76
2018-07-26T02:10:57.455Z,88.83
2018-07-26T02:13:24.596Z,89.80
2018-07-26T02:15:52.159Z,89.93
2018-07-26T02:18:19.321Z,90.00
2018-07-26T02:20:46.458Z,90.25
2018-07-26T02:23:13.607Z,90.04
2018-07-26T02:25:40.792Z,90.19
2018-07-26T02:28:07.936Z,90.34
2018-07-26T02:30:35.132Z,90.78
2018-07-26T02:33:02.293Z,91.46
2018-07-26T02:35:29.453Z,90.93
2018-07-26T02:37:56.621Z,91.31
2018-07-26T02:40:23.767Z,91.18
2018-07-26T02:42:51.228Z,91.26
2018-07-26T02:45:18.480Z,92.09
2018-07-26T02:47:45.656Z,91.85
2018-07-26T02:50:12.787Z,92.64
2018-07-26T02:52:40.045Z,92.16
2018-07-26T02:55:07.252Z,92.39
2018-07-26T02:57:34.340Z,92.83
2018-07-26T03:00:01.542Z,92.51
2018-07-26T03:02:28.658Z,92.47
2018-07-26T03:04:55.748Z,92.77
2018-07-26T03:07:22.926Z,92.65
2018-07-26T03:09:50.044Z,92.64
2018-07-26T03:12:17.207Z,92.81
2018-07-26T03:14:44.591Z,92.86
2018-07-26T03:17:13.433Z,93.45
2018-07-26T03:19:41.300Z,93.03
2018-07-26T03:22:08.730Z,93.43
2018-07-26T03:24:35.839Z,93.42
2018-07-26T03:27:02.972Z,93.18
2018-07-26T03:29:30.136Z,93.39
2018-07-26T03:31:57.258Z,93.91
2018-07-26T03:34:24.388Z,94.28
2018-07-26T03:36:51.600Z,93.79
2018-07-26T03:39:18.699Z,93.84
2018-07-26T03:41:45.854Z,93.80
2018-07-26T03:44:13.461Z,93.80
2018-07-26T03:46:40.663Z,93.82
2018-07-26T03:49:07.764Z,94.16
2018-07-26T03:51:34.925Z,94.91
2018-07-26T03:54:02.031Z,94.90
2018-07-26T03:56:29.143Z,95.66
2018-07-26T03:58:56.408Z,95.94
2018-07-26T04:01:23.504Z,95.55
2018-07-26T04:03:50.623Z,96.21
2018-07-26T04:06:17.848Z,96.17
2018-07-26T04:08:45.295Z,95.94
2018-07-26T04:11:12.424Z,96.29
2018-07-26T04:13:39.579Z,96.52
2018-07-26T04:16:06.695Z,96.24
2018-07-26T04:18:33.842Z,97.15
2018-07-26T04:21:01.000Z,96.63
2018-07-26T04:23:28.116Z,97.09
2018-07-26T04:25:55.285Z,96.68
2018-07-26T04:28:22.460Z,96.68
2018-07-26T04:30:49.584Z,97.25
2018-07-26T04:33:16.713Z,96.79
2018-07-26T04:35:43.948Z,97.30
2018-07-26T04:38:11.072Z,96.72
2018-07-26T04:40:38.188Z,96.78
2018-07-26T04:43:05.413Z,96.75
2018-07-26T04:45:32.531Z,95.73
2018-07-26T04:47:59.728Z,95.02
2018-07-26T04:50:26.892Z,95.32
2018-07-26T04:52:54.072Z,94.87
2018-07-26T04:55:21.236Z,94.22
2018-07-26T04:57:48.426Z,93.16
2018-07-26T05:00:15.561Z,91.97
2018-07-26T05:02:42.716Z,92.39
2018-07-26T05:05:09.914Z,87.85
2018-07-26T05:07:37.034Z,88.68
2018-07-26T05:10:04.631Z,88.29
2018-07-26T05:12:31.838Z,87.14
2018-07-26T05:14:59.003Z,87.70
2018-07-26T05:17:26.128Z,85.63
2018-07-26T05:19:53.329Z,84.51
2018-07-26T05:22:20.503Z,83.37
2018-07-26T05:24:47.624Z,83.30
2018-07-26T05:27:14.759Z,82.94
2018-07-26T05:29:41.891Z,80.52
2018-07-26T05:32:09.015Z,80.05
2018-07-26T05:34:36.257Z,79.39
2018-07-26T05:37:03.403Z,82.21
2018-07-26T05:39:30.534Z,80.21
2018-07-26T05:41:57.707Z,80.76
2018-07-26T05:44:24.849Z,80.59
2018-07-26T05:46:52.005Z,79.13
2018-07-26T05:49:20.151Z,77.45
2018-07-26T05:51:47.281Z,75.80
2018-07-26T05:54:14.380Z,74.10
2018-07-26T05:56:41.537Z,74.49
2018-07-26T05:59:08.680Z,74.46
2018-07-26T06:01:35.850Z,74.88
2018-07-26T06:04:03.019Z,73.21
2018-07-26T06:06:30.175Z,73.05
2018-07-26T06:08:57.280Z,72.74
2018-07-26T06:11:24.535Z,72.65
2018-07-26T06:13:51.713Z,72.09
2018-07-26T06:16:18.843Z,70.94
2018-07-26T06:18:45.983Z,70.99
2018-07-26T06:21:13.109Z,69.34
2018-07-26T06:23:40.235Z,70.54
2018-07-26T06:26:07.441Z,69.54
2018-07-26T06:28:34.556Z,68.97
2018-07-26T06:31:01.690Z,68.26
2018-07-26T06:33:28.909Z,70.27
2018-07-26T06:35:56.039Z,68.38
2018-07-26T06:38:23.195Z,69.25
2018-07-26T06:40:50.434Z,67.16
2018-07-26T06:43:17.576Z,65.57
2018-07-26T06:45:44.704Z,69.34
2018-07-26T06:48:11.949Z,64.33
2018-07-26T06:50:39.155Z,65.85
2018-07-26T06:53:06.312Z,66.12
2018-07-26T06:55:33.488Z,66.80
2018-07-26T06:58:00.672Z,65.04
2018-07-26T07:00:27.819Z,64.26
2018-07-26T07:02:55.020Z,64.73
2018-07-26T07:05:22.150Z,62.64
2018-07-26T07:07:49.285Z,65.38
2018-07-26T07:10:16.465Z,61.89
2018-07-26T07:12:43.589Z,61.94
2018-07-26T07:15:10.716Z,62.50
2018-07-26T07:17:38.034Z,62.00
2018-07-26T07:20:06.326Z,62.72
2018-07-26T07:22:33.497Z,61.30
2018-07-26T07:25:00.733Z,59.63
2018-07-26T07:27:28.244Z,59.57
2018-07-26T07:29:55.387Z,58.48
2018-07-26T07:32:22.529Z,59.25
2018-07-26T07:34:49.692Z,57.83
2018-07-26T07:37:16.851Z,57.45
2018-07-26T07:39:44.073Z,56.75
2018-07-26T07:42:11.628Z,57.74
2018-07-26T07:44:38.789Z,56.36
2018-07-26T07:47:06.030Z,55.39
2018-07-26T07:49:33.587Z,57.17
2018-07-26T07:52:00.817Z,54.90
2018-07-26T07:54:27.981Z,56.67
2018-07-26T07:56:55.111Z,53.70
2018-07-26T07:59:22.315Z,54.25
2018-07-26T08:01:49.515Z,55.29
2018-07-26T08:04:16.641Z,55.49
2018-07-26T08:06:43.830Z,54.10
2018-07-26T08:09:11.809Z,54.63
2018-07-26T08:11:39.022Z,53.79
2018-07-26T08:14:06.770Z,51.55
2018-07-26T08:16:33.921Z,55.64
2018-07-26T08:19:01.100Z,54.16
2018-07-26T08:21:28.248Z,50.65
2018-07-26T08:23:55.532Z,51.28
2018-07-26T08:26:22.673Z,53.43
2018-07-26T08:28:49.808Z,50.90
2018-07-26T08:31:17.046Z,52.76
2018-07-26T08:33:44.162Z,51.47
2018-07-26T08:36:11.334Z,49.81
2018-07-26T08:38:38.532Z,50.88
2018-07-26T08:41:05.718Z,50.05
2018-07-26T08:43:32.852Z,49.24
2018-07-26T08:46:00.019Z,50.34
2018-07-26T08:48:27.159Z,49.18
2018-07-26T08:50:54.309Z,50.39
2018-07-26T08:53:21.566Z,48.81
2018-07-26T08:55:48.724Z,49.81
2018-07-26T08:58:15.873Z,48.38
2018-07-26T09:00:43.073Z,46.17
2018-07-26T09:03:10.301Z,46.32
2018-07-26T09:05:37.467Z,45.96
2018-07-26T09:08:04.660Z,46.17
2018-07-26T09:10:31.788Z,49.72
2018-07-26T09:12:58.952Z,46.43
2018-07-26T09:15:26.480Z,44.84
2018-07-26T09:17:53.600Z,44.77
2018-07-26T09:20:20.739Z,42.81
2018-07-26T09:22:47.901Z,45.23
2018-07-26T09:25:15.038Z,46.11
2018-07-26T09:27:42.177Z,43.78
2018-07-26T09:30:09.978Z,44.48
2018-07-26T09:32:37.182Z,43.94
2018-07-26T09:35:04.757Z,41.86
2018-07-26T09:37:31.940Z,42.96
2018-07-26T09:39:59.170Z,39.99
2018-07-26T09:42:26.305Z,41.32
2018-07-26T09:44:53.557Z,40.33
2018-07-26T09:47:20.770Z,38.74
2018-07-26T09:49:47.879Z,39.55
2018-07-26T09:52:15.087Z,40.98
2018-07-26T09:54:42.811Z,39.05
2018-07-26T09:57:09.952Z,40.35
2018-07-26T09:59:37.169Z,38.86
2018-07-26T10:02:04.332Z,39.01
2018-07-26T10:04:31.439Z,35.21
2018-07-26T10:06:58.714Z,43.30
2018-07-26T10:09:25.839Z,41.38
2018-07-26T10:11:52.966Z,37.84
2018-07-26T10:14:20.148Z,33.79
2018-07-26T10:16:47.318Z,38.03
2018-07-26T10:19:14.442Z,33.64
2018-07-26T10:21:41.648Z,35.97
2018-07-26T10:24:08.835Z,36.95
2018-07-26T10:26:36.078Z,34.43
2018-07-26T10:29:03.248Z,34.85
2018-07-26T10:31:30.373Z,32.16
2018-07-26T10:33:57.523Z,31.81
2018-07-26T10:36:24.768Z,31.67
2018-07-26T10:38:51.903Z,33.50
2018-07-26T10:41:19.109Z,31.36
2018-07-26T10:43:46.282Z,37.02
2018-07-26T10:46:13.401Z,29.88
2018-07-26T10:48:40.609Z,25.25
2018-07-26T10:51:07.799Z,28.03
2018-07-26T10:53:34.967Z,30.72
2018-07-26T10:56:02.164Z,30.71
2018-07-26T10:58:29.456Z,31.68
2018-07-26T11:00:56.575Z,31.22
2018-07-26T11:03:23.701Z,29.51
2018-07-26T11:05:50.967Z,30.48
2018-07-26T11:08:18.402Z,27.28
2018-07-26T11:10:45.571Z,26.61
2018-07-26T11:13:12.798Z,30.42
2018-07-26T11:15:39.972Z,31.75
2018-07-26T11:18:07.157Z,29.07
2018-07-26T11:20:34.348Z,25.56
2018-07-26T11:23:01.471Z,27.14
2018-07-26T11:25:28.615Z,26.46
2018-07-26T11:27:55.824Z,26.29
2018-07-26T11:30:23.359Z,27.73
2018-07-26T11:32:50.544Z,28.79
2018-07-26T11:35:17.764Z,26.16
2018-07-26T11:37:44.870Z,24.29
2018-07-26T11:40:12.001Z,27.81
2018-07-26T11:42:39.312Z,24.60
2018-07-26T11:45:07.481Z,23.93
2018-07-26T11:47:34.677Z,31.86
2018-07-26T11:50:01.966Z,23.13
2018-07-26T11:52:29.170Z,21.50
2018-07-26T11:54:56.313Z,26.67
2018-07-26T11:57:23.616Z,24.12
2018-07-26T11:59:50.891Z,24.00
2018-07-26T12:02:18.062Z,21.05
2018-07-26T12:04:45.261Z,21.01
2018-07-26T12:07:12.468Z,20.12
2018-07-26T12:09:39.962Z,21.00
2018-07-26T12:12:07.320Z,21.62
2018-07-26T12:14:34.429Z,24.13
2018-07-26T12:17:01.553Z,24.91
2018-07-26T12:19:28.727Z,26.46
2018-07-26T12:21:55.894Z,24.44
2018-07-26T12:24:23.020Z,26.88
2018-07-26T12:26:50.805Z,24.42
2018-07-26T12:29:17.884Z,28.04
2018-07-26T12:31:45.004Z,26.29
2018-07-26T12:34:12.200Z,29.20
2018-07-26T12:36:39.321Z,29.41
2018-07-26T12:39:08.228Z,29.20
2018-07-26T12:41:35.403Z,30.73
2018-07-26T12:44:02.574Z,26.04
2018-07-26T12:46:29.707Z,28.89
2018-07-26T12:48:56.943Z,28.69
2018-07-26T12:51:24.080Z,29.60
2018-07-26T12:53:51.252Z,27.81
2018-07-26T12:56:18.469Z,26.45
2018-07-26T12:58:45.657Z,29.71
2018-07-26T13:01:12.768Z,29.10
2018-07-26T13:03:39.951Z,29.83
2018-07-26T13:06:07.064Z,28.25
2018-07-26T13:08:34.196Z,31.50
2018-07-26T13:11:01.437Z,29.89
2018-07-26T13:13:28.570Z,27.73
2018-07-26T13:15:55.667Z,29.20
2018-07-26T13:18:22.826Z,28.18
2018-07-26T13:20:49.985Z,30.35
2018-07-26T13:23:17.144Z,27.48
2018-07-26T13:25:44.497Z,31.51
2018-07-26T13:28:11.645Z,26.93
2018-07-26T13:30:38.843Z,27.35
2018-07-26T13:33:06.114Z,28.12
2018-07-26T13:35:33.280Z,26.86
2018-07-26T13:38:00.402Z,25.75
2018-07-26T13:40:27.628Z,26.84
2018-07-26T13:42:55.036Z,28.12
2018-07-26T13:45:22.147Z,28.41
2018-07-26T13:47:49.313Z,28.05
2018-07-26T13:50:16.519Z,29.93
2018-07-26T13:52:43.697Z,28.37
2018-07-26T13:55:10.992Z,26.63
2018-07-26T13:57:38.113Z,28.53
2018-07-26T14:00:05.561Z,27.84
2018-07-26T14:02:32.747Z,29.06
2018-07-26T14:04:59.869Z,28.22
2018-07-26T14:07:26.987Z,30.16
2018-07-26T14:09:54.207Z,27.67
2018-07-26T14:12:21.360Z,25.68
2018-07-26T14:14:48.532Z,27.86
2018-07-26T14:17:15.753Z,28.70
2018-07-26T14:19:44.914Z,27.12
2018-07-26T14:22:12.084Z,26.17
2018-07-26T14:24:39.308Z,26.17
2018-07-26T14:27:06.477Z,25.46
2018-07-26T14:29:33.610Z,26.48
2018-07-26T14:32:00.781Z,26.76
2018-07-26T14:34:27.900Z,24.66
2018-07-26T14:36:55.032Z,26.15
2018-07-26T14:39:22.247Z,26.71
2018-07-26T14:41:49.421Z,25.65
2018-07-26T14:44:16.569Z,27.18
2018-07-26T14:46:43.782Z,27.04
2018-07-26T14:49:10.906Z,23.76
2018-07-26T14:51:38.035Z,25.38
2018-07-26T14:54:05.256Z,25.22
2018-07-26T14:56:32.425Z,23.65
2018-07-26T14:58:59.695Z,24.62
2018-07-26T15:01:27.056Z,22.27
2018-07-26T15:03:54.177Z,25.56
2018-07-26T15:06:21.329Z,22.58
2018-07-26T15:08:48.460Z,21.73
2018-07-26T15:11:15.619Z,26.19
2018-07-26T15:13:42.724Z,23.42
2018-07-26T15:16:09.894Z,23.70
2018-07-26T15:18:37.028Z,26.79
2018-07-26T15:21:04.253Z,22.56
2018-07-26T15:23:31.440Z,21.77
2018-07-26T15:25:58.645Z,22.24
2018-07-26T15:28:25.759Z,21.92
2018-07-26T15:30:52.936Z,19.46
2018-07-26T15:33:20.069Z,18.96
2018-07-26T15:35:47.181Z,17.99
2018-07-26T15:38:14.324Z,16.91
2018-07-26T15:40:41.489Z,17.17
2018-07-26T15:43:08.658Z,13.94
2018-07-26T15:45:35.983Z,12.30
2018-07-26T15:48:04.173Z,12.03
2018-07-26T15:50:31.311Z,11.93
2018-07-26T15:52:58.589Z,11.99
2018-07-26T15:55:25.765Z,13.29
2018-07-26T15:57:53.172Z,12.79
2018-07-26T16:00:20.467Z,12.27
2018-07-26T16:02:47.636Z,12.72
2018-07-26T16:05:14.816Z,13.57
2018-07-26T16:07:42.132Z,12.66
2018-07-26T16:10:09.378Z,13.62
2018-07-26T16:12:36.684Z,14.42
2018-07-26T16:15:06.376Z,13.29
2018-07-26T16:17:33.559Z,14.25
2018-07-26T16:20:00.682Z,14.79
2018-07-26T16:22:27.953Z,16.10
2018-07-26T16:24:55.066Z,16.90
2018-07-26T16:27:22.199Z,17.75
2018-07-26T16:29:49.381Z,17.98
2018-07-26T16:32:16.580Z,18.51
2018-07-26T16:34:43.747Z,17.49
2018-07-26T16:37:11.010Z,19.68
2018-07-26T16:39:38.156Z,20.25
2018-07-26T16:42:05.308Z,19.83
2018-07-26T16:44:32.463Z,18.92
2018-07-26T16:46:59.584Z,18.05
2018-07-26T16:49:27.252Z,21.12
2018-07-26T16:51:54.533Z,21.50
2018-07-26T16:54:21.675Z,21.36
2018-07-26T16:56:48.885Z,21.68
2018-07-26T16:59:16.053Z,24.50
2018-07-26T17:01:43.217Z,25.13
2018-07-26T17:04:10.420Z,26.67
2018-07-26T17:06:37.650Z,26.92
2018-07-26T17:09:07.605Z,27.51
2018-07-26T17:11:34.733Z,28.50
2018-07-26T17:14:01.928Z,31.32
2018-07-26T17:16:29.148Z,30.84
2018-07-26T17:18:56.321Z,34.41
2018-07-26T17:21:23.634Z,34.50
2018-07-26T17:23:50.814Z,34.49
2018-07-26T17:26:17.981Z,31.70
2018-07-26T17:28:45.159Z,33.04
2018-07-26T17:31:12.299Z,33.34
2018-07-26T17:33:39.509Z,33.49
2018-07-26T17:36:06.871Z,36.21
2018-07-26T17:38:34.008Z,36.91
2018-07-26T17:41:01.152Z,36.88
2018-07-26T17:43:28.344Z,37.12
2018-07-26T17:45:55.519Z,39.27
2018-07-26T17:48:22.731Z,38.49
2018-07-26T17:50:50.029Z,39.73
2018-07-26T17:53:17.285Z,38.17
2018-07-26T17:55:44.488Z,38.87
2018-07-26T17:58:11.671Z,38.00
2018-07-26T18:00:38.793Z,37.67
2018-07-26T18:03:05.911Z,39.51
2018-07-26T18:05:33.189Z,38.80
2018-07-26T18:08:00.296Z,39.63
2018-07-26T18:10:27.424Z,39.43
2018-07-26T18:12:54.585Z,41.30
2018-07-26T18:15:21.729Z,40.89
2018-07-26T18:17:48.956Z,43.30
2018-07-26T18:20:16.208Z,43.98
2018-07-26T18:22:43.336Z,44.35
2018-07-26T18:25:10.452Z,45.32
2018-07-26T18:27:37.697Z,44.78
2018-07-26T18:30:05.960Z,43.93
2018-07-26T18:32:33.085Z,46.75
2018-07-26T18:35:00.287Z,45.71
2018-07-26T18:37:27.388Z,46.65
2018-07-26T18:39:54.566Z,48.96
2018-07-26T18:42:21.850Z,48.01
2018-07-26T18:44:48.987Z,47.59
2018-07-26T18:47:16.116Z,50.79
2018-07-26T18:49:43.301Z,49.85
2018-07-26T18:52:10.468Z,51.97
2018-07-26T18:54:37.689Z,51.45
2018-07-26T18:57:05.057Z,52.50
2018-07-26T18:59:32.222Z,52.39
2018-07-26T19:01:59.423Z,55.22
2018-07-26T19:04:26.630Z,53.62
2018-07-26T19:06:53.881Z,55.74
2018-07-26T19:09:21.047Z,54.72
2018-07-26T19:11:48.303Z,56.09
2018-07-26T19:14:15.453Z,57.96
2018-07-26T19:16:42.602Z,56.87
2018-07-26T19:19:09.824Z,57.88
2018-07-26T19:21:36.979Z,58.43
2018-07-26T19:24:04.224Z,57.56
2018-07-26T19:26:31.460Z,58.33
2018-07-26T19:28:58.660Z,58.54
2018-07-26T19:31:25.805Z,59.42
2018-07-26T19:33:53.097Z,60.55
2018-07-26T19:36:20.284Z,59.65
2018-07-26T19:38:47.384Z,58.27
2018-07-26T19:41:14.568Z,58.71
2018-07-26T19:43:41.716Z,60.16
2018-07-26T19:46:08.910Z,57.09
2018-07-26T19:48:36.098Z,57.43
2018-07-26T19:51:03.325Z,57.05
2018-07-26T19:53:30.440Z,55.37
2018-07-26T19:55:57.662Z,55.93
2018-07-26T19:58:24.814Z,56.58
2018-07-26T20:00:51.964Z,55.70
2018-07-26T20:03:19.226Z,57.61
2018-07-26T20:05:46.377Z,59.66
2018-07-26T20:08:13.649Z,55.93
2018-07-26T20:10:40.844Z,56.27
2018-07-26T20:13:08.018Z,55.86
2018-07-26T20:15:35.178Z,55.97
2018-07-26T20:18:02.372Z,55.42
2018-07-26T20:20:29.509Z,57.45
2018-07-26T20:22:56.649Z,57.74
2018-07-26T20:25:23.818Z,59.25
2018-07-26T20:27:50.975Z,56.26
2018-07-26T20:30:18.183Z,55.31
2018-07-26T20:32:45.355Z,56.33
2018-07-26T20:35:12.538Z,56.29
2018-07-26T20:37:39.693Z,57.00
2018-07-26T20:40:08.390Z,56.57
2018-07-26T20:42:35.540Z,55.55
2018-07-26T20:45:02.741Z,58.77
2018-07-26T20:47:29.957Z,57.17
2018-07-26T20:49:57.179Z,56.96
2018-07-26T20:52:24.322Z,56.65
2018-07-26T20:54:51.488Z,56.02
2018-07-26T20:57:18.621Z,56.50
2018-07-26T20:59:45.790Z,55.92
2018-07-26T21:02:13.359Z,55.77
2018-07-26T21:04:40.529Z,56.00
2018-07-26T21:07:07.761Z,56.68
2018-07-26T21:09:35.143Z,57.01
2018-07-26T21:12:02.264Z,58.85
2018-07-26T21:14:29.371Z,58.91
2018-07-26T21:16:56.607Z,59.09
2018-07-26T21:19:23.708Z,59.09
2018-07-26T21:21:50.832Z,60.61
2018-07-26T21:24:18.016Z,59.13
2018-07-26T21:26:45.208Z,62.06
2018-07-26T21:29:12.404Z,61.23
2018-07-26T21:31:39.601Z,62.25
2018-07-26T21:34:06.712Z,64.53
2018-07-26T21:36:33.828Z,63.37
2018-07-26T21:39:00.963Z,63.95
2018-07-26T21:41:28.103Z,65.41
2018-07-26T21:43:55.207Z,64.78
2018-07-26T21:46:22.500Z,66.32
2018-07-26T21:48:49.630Z,68.44
2018-07-26T21:51:16.769Z,68.30
2018-07-26T21:53:44.129Z,66.46
2018-07-26T21:56:11.288Z,67.45
2018-07-26T21:58:38.404Z,67.60
2018-07-26T22:01:05.645Z,68.16
2018-07-26T22:03:32.774Z,65.68
2018-07-26T22:05:59.879Z,64.81
2018-07-26T22:08:27.086Z,66.13
2018-07-26T22:10:54.345Z,67.82
2018-07-26T22:13:21.496Z,66.41
2018-07-26T22:15:50.188Z,65.99
2018-07-26T22:18:17.344Z,66.77
2018-07-26T22:20:44.476Z,67.68
2018-07-26T22:23:11.811Z,67.44
2018-07-26T22:25:38.958Z,66.51
2018-07-26T22:28:06.063Z,67.23
2018-07-26T22:30:33.310Z,66.28
2018-07-26T22:33:00.440Z,66.72
2018-07-26T22:35:27.576Z,67.28
2018-07-26T22:37:54.812Z,64.61
2018-07-26T22:40:22.039Z,65.11
2018-07-26T22:42:49.205Z,65.48
2018-07-26T22:45:16.386Z,67.33
2018-07-26T22:47:43.491Z,67.17
2018-07-26T22:50:10.707Z,66.05
2018-07-26T22:52:37.955Z,65.66
2018-07-26T22:55:05.200Z,66.18
2018-07-26T22:57:32.345Z,66.48
2018-07-26T22:59:59.523Z,64.84
2018-07-26T23:02:26.744Z,64.64
2018-07-26T23:04:53.944Z,64.75
2018-07-26T23:07:21.193Z,65.74
2018-07-26T23:09:48.321Z,65.85
2018-07-26T23:12:15.495Z,67.00
2018-07-26T23:14:42.690Z,68.15
2018-07-26T23:17:09.832Z,66.92
2018-07-26T23:19:36.985Z,68.99
2018-07-26T23:22:04.276Z,69.38
2018-07-26T23:24:31.435Z,70.88
2018-07-26T23:26:58.576Z,68.12
2018-07-26T23:29:25.831Z,66.64
2018-07-26T23:31:52.945Z,69.01
2018-07-26T23:34:20.087Z,68.49
2018-07-26T23:36:47.335Z,67.82
2018-07-26T23:39:14.464Z,70.15
2018-07-26T23:41:41.609Z,69.59
2018-07-26T23:44:09.040Z,69.93
2018-07-26T23:46:36.304Z,71.35
2018-07-26T23:49:03.507Z,70.62
2018-07-26T23:51:30.845Z,70.20
2018-07-26T23:53:57.975Z,69.68
2018-07-26T23:56:25.101Z,71.02
2018-07-26T23:58:52.469Z,72.20
